sensor_id;sensor_type;location;lat;lon;timestamp;P1;durP1;ratioP1;P2;durP2;ratioP2
73104;SDS011;61296;50.526;30.792;2022-10-16T00:07:43;35.40;;;14.32;;
73104;SDS011;61296;50.526;30.792;2022-10-16T00:23:03;44.50;;;18.25;;
73104;SDS011;61296;50.526;30.792;2022-10-16T00:38:23;41.22;;;19.10;;
73104;SDS011;61296;50.526;30.792;2022-10-16T00:53:43;38.45;;;18.42;;
73104;SDS011;61296;50.526;30.792;2022-10-16T01:24:38;20.45;;;10.40;;
73104;SDS011;61296;50.526;30.792;2022-10-16T01:40:00;23.67;;;10.75;;
73104;SDS011;61296;50.526;30.792;2022-10-16T01:55:28;23.85;;;11.60;;
73104;SDS011;61296;50.526;30.792;2022-10-16T02:10:51;33.38;;;16.15;;
73104;SDS011;61296;50.526;30.792;2022-10-16T02:26:12;28.48;;;14.50;;
73104;SDS011;61296;50.526;30.792;2022-10-16T02:41:34;30.90;;;16.27;;
73104;SDS011;61296;50.526;30.792;2022-10-16T02:56:54;31.25;;;15.07;;
73104;SDS011;61296;50.526;30.792;2022-10-16T03:12:14;33.97;;;15.90;;
73104;SDS011;61296;50.526;30.792;2022-10-16T03:27:33;29.60;;;15.52;;
73104;SDS011;61296;50.526;30.792;2022-10-16T03:42:53;22.75;;;11.13;;
73104;SDS011;61296;50.526;30.792;2022-10-16T03:58:16;26.40;;;13.13;;
73104;SDS011;61296;50.526;30.792;2022-10-16T04:13:36;24.38;;;12.50;;
73104;SDS011;61296;50.526;30.792;2022-10-16T04:28:55;26.88;;;13.18;;
73104;SDS011;61296;50.526;30.792;2022-10-16T04:44:14;26.45;;;13.75;;
73104;SDS011;61296;50.526;30.792;2022-10-16T04:59:34;25.38;;;11.93;;
73104;SDS011;61296;50.526;30.792;2022-10-16T05:14:53;24.38;;;10.60;;
73104;SDS011;61296;50.526;30.792;2022-10-16T05:30:17;26.63;;;12.15;;
73104;SDS011;61296;50.526;30.792;2022-10-16T05:45:37;32.22;;;14.02;;
73104;SDS011;61296;50.526;30.792;2022-10-16T06:00:57;24.98;;;12.20;;
73104;SDS011;61296;50.526;30.792;2022-10-16T06:16:20;19.45;;;10.45;;
73104;SDS011;61296;50.526;30.792;2022-10-16T06:31:39;22.13;;;10.57;;
73104;SDS011;61296;50.526;30.792;2022-10-16T06:46:59;23.17;;;10.82;;
73104;SDS011;61296;50.526;30.792;2022-10-16T07:02:18;15.50;;;8.82;;
73104;SDS011;61296;50.526;30.792;2022-10-16T07:17:38;12.98;;;7.93;;
73104;SDS011;61296;50.526;30.792;2022-10-16T07:32:58;20.67;;;8.75;;
73104;SDS011;61296;50.526;30.792;2022-10-16T07:48:17;14.90;;;7.93;;
73104;SDS011;61296;50.526;30.792;2022-10-16T08:03:38;17.95;;;8.45;;
73104;SDS011;61296;50.526;30.792;2022-10-16T08:19:00;14.38;;;8.25;;
73104;SDS011;61296;50.526;30.792;2022-10-16T08:34:20;9.90;;;6.47;;
73104;SDS011;61296;50.526;30.792;2022-10-16T08:49:40;9.00;;;5.55;;
73104;SDS011;61296;50.526;30.792;2022-10-16T09:05:17;7.55;;;5.00;;
73104;SDS011;61296;50.526;30.792;2022-10-16T09:20:51;8.57;;;3.90;;
73104;SDS011;61296;50.526;30.792;2022-10-16T09:36:17;7.22;;;4.03;;
73104;SDS011;61296;50.526;30.792;2022-10-16T09:51:38;7.88;;;4.07;;
73104;SDS011;61296;50.526;30.792;2022-10-16T10:06:57;7.18;;;4.10;;
73104;SDS011;61296;50.526;30.792;2022-10-16T11:25:04;6.85;;;3.67;;
73104;SDS011;61296;50.526;30.792;2022-10-16T11:55:47;10.73;;;4.68;;
73104;SDS011;61296;50.526;30.792;2022-10-16T12:26:45;7.90;;;3.95;;
73104;SDS011;61296;50.526;30.792;2022-10-16T12:42:19;9.18;;;4.43;;
73104;SDS011;61296;50.526;30.792;2022-10-16T13:13:17;4.72;;;3.60;;
73104;SDS011;61296;50.526;30.792;2022-10-16T13:44:21;5.35;;;3.10;;
73104;SDS011;61296;50.526;30.792;2022-10-16T13:59:40;4.32;;;2.72;;
73104;SDS011;61296;50.526;30.792;2022-10-16T14:15:01;5.43;;;3.03;;
73104;SDS011;61296;50.526;30.792;2022-10-16T14:30:21;6.63;;;4.03;;
73104;SDS011;61296;50.526;30.792;2022-10-16T14:45:41;9.45;;;5.00;;
73104;SDS011;61296;50.526;30.792;2022-10-16T15:01:02;9.50;;;5.28;;
73104;SDS011;61296;50.526;30.792;2022-10-16T15:16:21;11.90;;;6.28;;
73104;SDS011;61296;50.526;30.792;2022-10-16T15:31:44;31.88;;;17.15;;
73104;SDS011;61296;50.526;30.792;2022-10-16T15:47:05;40.08;;;21.75;;
73104;SDS011;61296;50.526;30.792;2022-10-16T16:02:26;19.50;;;9.82;;
73104;SDS011;61296;50.526;30.792;2022-10-16T16:17:46;20.40;;;10.27;;
73104;SDS011;61296;50.526;30.792;2022-10-16T16:33:06;15.73;;;9.20;;
73104;SDS011;61296;50.526;30.792;2022-10-16T16:48:26;18.08;;;8.80;;
73104;SDS011;61296;50.526;30.792;2022-10-16T17:03:45;17.88;;;8.68;;
73104;SDS011;61296;50.526;30.792;2022-10-16T17:19:09;15.45;;;9.10;;
73104;SDS011;61296;50.526;30.792;2022-10-16T17:34:32;17.17;;;9.35;;
73104;SDS011;61296;50.526;30.792;2022-10-16T17:49:54;20.50;;;11.38;;
73104;SDS011;61296;50.526;30.792;2022-10-16T18:05:15;20.42;;;10.90;;
73104;SDS011;61296;50.526;30.792;2022-10-16T18:20:34;18.20;;;9.98;;
73104;SDS011;61296;50.526;30.792;2022-10-16T18:35:54;21.13;;;10.85;;
73104;SDS011;61296;50.526;30.792;2022-10-16T18:51:47;15.60;;;9.00;;
73104;SDS011;61296;50.526;30.792;2022-10-16T19:07:00;22.52;;;11.50;;
73104;SDS011;61296;50.526;30.792;2022-10-16T19:22:19;25.60;;;12.15;;
73104;SDS011;61296;50.526;30.792;2022-10-16T19:37:49;26.77;;;11.52;;
73104;SDS011;61296;50.526;30.792;2022-10-16T19:53:09;19.05;;;10.10;;
73104;SDS011;61296;50.526;30.792;2022-10-16T20:08:28;23.38;;;10.63;;
73104;SDS011;61296;50.526;30.792;2022-10-16T20:23:48;18.55;;;11.10;;
73104;SDS011;61296;50.526;30.792;2022-10-16T20:39:09;29.33;;;12.90;;
73104;SDS011;61296;50.526;30.792;2022-10-16T20:54:31;18.85;;;9.95;;
73104;SDS011;61296;50.526;30.792;2022-10-16T21:09:53;15.18;;;8.60;;
73104;SDS011;61296;50.526;30.792;2022-10-16T21:25:14;17.70;;;8.38;;
73104;SDS011;61296;50.526;30.792;2022-10-16T21:40:34;15.90;;;8.70;;
73104;SDS011;61296;50.526;30.792;2022-10-16T21:55:54;15.13;;;7.93;;
73104;SDS011;61296;50.526;30.792;2022-10-16T22:11:21;15.05;;;7.95;;
73104;SDS011;61296;50.526;30.792;2022-10-16T22:26:42;16.85;;;8.50;;
73104;SDS011;61296;50.526;30.792;2022-10-16T22:42:02;15.00;;;7.30;;
73104;SDS011;61296;50.526;30.792;2022-10-16T22:57:22;18.83;;;7.97;;
73104;SDS011;61296;50.526;30.792;2022-10-16T23:12:41;13.93;;;7.40;;
73104;SDS011;61296;50.526;30.792;2022-10-16T23:28:00;15.80;;;7.82;;
73104;SDS011;61296;50.526;30.792;2022-10-16T23:43:20;14.63;;;7.28;;
73104;SDS011;61296;50.526;30.792;2022-10-16T23:58:40;16.48;;;8.18;;
